Time;durP1;ratioP1;P1;durP2;ratioP2;P2;SDS_P1;SDS_P2;PMS_P1;PMS_P2;Temp;Humidity;BMP_temperature;BMP_pressure;BME280_temperature;BME280_humidity;BME280_pressure;Samples;Min_cycle;Max_cycle;Signal;HPM_P1;HPM_P2
2023/02/13 00:00:00;;;;;;;1.00;1.00;;;19.90;66.00;;;;;;6188297;23;19997;-68
2023/02/13 00:02:26;;;;;;;1.20;1.10;;;20.00;66.10;;;;;;6213478;23;20042;-68
2023/02/13 00:04:52;;;;;;;1.98;1.20;;;19.90;66.10;;;;;;6213651;23;20005;-68
2023/02/13 00:07:17;;;;;;;1.42;1.33;;;19.90;66.20;;;;;;6214940;23;20032;-68
2023/02/13 00:09:43;;;;;;;2.47;1.02;;;19.90;66.30;;;;;;6215018;23;20000;-68
2023/02/13 00:12:08;;;;;;;1.65;1.08;;;20.00;66.30;;;;;;6215010;23;20012;-68
2023/02/13 00:14:37;;;;;;;4.45;1.30;;;20.00;66.50;;;;;;6188339;23;20011;-67
2023/02/13 00:17:03;;;;;;;4.03;1.20;;;20.00;66.40;;;;;;6188936;23;20416;-68
2023/02/13 00:19:29;;;;;;;1.55;0.95;;;20.00;67.50;;;;;;6188425;23;20031;-68
2023/02/13 00:21:54;;;;;;;1.10;1.00;;;20.00;66.50;;;;;;6213143;23;20036;-68
2023/02/13 00:24:20;;;;;;;2.53;1.20;;;20.00;66.50;;;;;;6213723;23;19997;-68
2023/02/13 00:26:46;;;;;;;2.00;1.30;;;20.00;66.50;;;;;;6213288;23;20001;-68
2023/02/13 00:29:11;;;;;;;2.88;1.25;;;20.00;66.50;;;;;;6216502;23;20012;-68
2023/02/13 00:31:37;;;;;;;1.23;1.13;;;20.00;66.60;;;;;;6217114;23;20005;-68
2023/02/13 00:34:03;;;;;;;3.08;1.70;;;20.00;66.70;;;;;;6217026;23;20004;-68
2023/02/13 00:36:28;;;;;;;1.45;1.23;;;20.00;66.60;;;;;;6215238;23;20425;-68
2023/02/13 00:38:54;;;;;;;2.67;1.20;;;20.00;66.70;;;;;;6216812;23;20028;-68
2023/02/13 00:41:20;;;;;;;1.38;0.95;;;20.00;66.60;;;;;;6215583;23;20004;-68
2023/02/13 00:43:46;;;;;;;5.28;1.20;;;20.00;66.80;;;;;;6216876;23;20326;-68
2023/02/13 00:46:11;;;;;;;16.95;2.00;;;20.00;66.80;;;;;;6190635;23;20421;-68
2023/02/13 00:48:37;;;;;;;1.20;1.10;;;20.00;66.80;;;;;;6215229;23;20030;-68
2023/02/13 00:51:03;;;;;;;2.67;1.30;;;20.10;66.90;;;;;;6215094;23;20000;-68
2023/02/13 00:53:29;;;;;;;1.60;1.25;;;20.10;66.90;;;;;;6215334;23;20322;-68
2023/02/13 00:55:54;;;;;;;1.77;1.30;;;20.10;66.80;;;;;;6216718;23;20000;-68
2023/02/13 00:58:20;;;;;;;2.15;1.20;;;20.10;66.90;;;;;;6215250;23;19997;-68
2023/02/13 01:00:46;;;;;;;1.58;1.40;;;20.10;66.90;;;;;;6216595;23;20000;-68
2023/02/13 01:03:12;;;;;;;1.17;1.08;;;20.10;66.90;;;;;;6190172;23;20024;-68
2023/02/13 01:05:38;;;;;;;1.73;1.10;;;20.10;66.90;;;;;;6216509;23;20001;-68
2023/02/13 01:08:04;;;;;;;1.65;1.10;;;20.10;66.90;;;;;;6214996;23;20005;-68
2023/02/13 01:10:30;;;;;;;1.73;1.33;;;20.10;66.80;;;;;;6215005;23;20068;-68
2023/02/13 01:12:55;;;;;;;1.60;1.10;;;20.10;66.90;;;;;;6214835;23;20001;-68
2023/02/13 01:15:21;;;;;;;1.88;1.35;;;20.10;66.80;;;;;;6215076;23;19997;-68
2023/02/13 01:17:46;;;;;;;2.75;1.33;;;20.10;66.80;;;;;;6214791;23;20000;-68
2023/02/13 01:20:12;;;;;;;1.70;1.30;;;20.10;66.80;;;;;;6214453;23;20464;-68
2023/02/13 01:22:38;;;;;;;1.00;1.00;;;20.10;66.70;;;;;;6216546;23;19997;-68
2023/02/13 01:25:04;;;;;;;1.33;1.23;;;20.10;66.70;;;;;;6216410;23;20001;-68
2023/02/13 01:27:31;;;;;;;1.38;1.15;;;20.10;66.70;;;;;;6189711;23;20420;-68
2023/02/13 01:29:57;;;;;;;1.75;1.30;;;20.10;66.70;;;;;;6214866;23;20071;-68
2023/02/13 01:32:22;;;;;;;2.60;1.50;;;20.10;66.70;;;;;;6214911;23;20380;-68
2023/02/13 01:34:48;;;;;;;6.45;1.88;;;20.10;66.70;;;;;;6189517;23;20004;-68
2023/02/13 01:37:13;;;;;;;2.28;1.38;;;20.10;66.70;;;;;;6214703;23;20016;-68
2023/02/13 01:39:39;;;;;;;1.40;1.08;;;20.10;66.70;;;;;;6214271;23;20001;-68
2023/02/13 01:42:11;;;;;;;2.83;1.38;;;20.10;66.70;;;;;;6214826;23;20074;-68
2023/02/13 01:45:04;;;;;;;7.10;1.40;;;20.10;67.00;;;;;;6190758;23;19997;-68
2023/02/13 01:47:44;;;;;;;2.53;1.10;;;20.10;66.80;;;;;;6094773;23;20053;-68
2023/02/13 01:50:11;;;;;;;2.78;1.17;;;20.10;66.80;;;;;;6070948;23;20026;-68
2023/02/13 01:52:40;;;;;;;2.35;1.08;;;20.10;66.90;;;;;;6094989;23;20006;-68
2023/02/13 01:55:05;;;;;;;1.58;1.30;;;20.10;66.90;;;;;;6071229;23;20071;-68
2023/02/13 01:57:31;;;;;;;1.50;1.40;;;20.10;66.90;;;;;;6094943;23;20093;-68
2023/02/13 02:00:01;;;;;;;1.67;1.55;;;20.10;66.90;;;;;;6070876;23;20034;-67
2023/02/13 02:02:27;;;;;;;1.55;1.30;;;20.10;66.90;;;;;;6071019;23;20006;-68
2023/02/13 02:04:52;;;;;;;1.85;1.38;;;20.10;66.80;;;;;;6070967;23;20088;-68
2023/02/13 02:07:28;;;;;;;2.17;1.10;;;20.10;66.90;;;;;;6070775;23;20137;-68
2023/02/13 02:09:55;;;;;;;1.40;1.30;;;20.10;66.90;;;;;;6071022;23;20091;-68
2023/02/13 02:12:55;;;;;;;1.33;1.23;;;20.10;67.00;;;;;;6071078;23;20006;-68
2023/02/13 02:15:21;;;;;;;1.42;1.33;;;20.10;66.90;;;;;;6074215;23;20057;-68
2023/02/13 02:17:46;;;;;;;3.05;1.33;;;20.10;67.00;;;;;;6070668;23;20010;-68
2023/02/13 02:20:42;;;;;;;1.77;1.20;;;20.10;67.00;;;;;;6094492;23;20061;-68
2023/02/13 02:24:05;;;;;;;3.25;1.23;;;20.10;67.00;;;;;;6098545;23;20094;-68
2023/02/13 02:26:39;;;;;;;3.33;1.20;;;20.10;67.00;;;;;;6070525;23;20042;-68
2023/02/13 02:29:10;;;;;;;1.20;1.10;;;20.10;67.00;;;;;;6094253;23;20018;-68
2023/02/13 02:32:03;;;;;;;1.23;1.20;;;20.10;67.00;;;;;;6094248;23;20038;-68
2023/02/13 02:34:53;;;;;;;2.70;1.23;;;20.20;67.20;;;;;;6094634;23;20006;-68
2023/02/13 02:37:38;;;;;;;2.20;1.20;;;20.10;67.20;;;;;;6094462;23;20038;-68
2023/02/13 02:40:07;;;;;;;2.63;1.08;;;20.10;67.00;;;;;;6071566;23;20006;-68
2023/02/13 02:42:55;;;;;;;1.30;1.20;;;20.10;67.10;;;;;;6094632;23;20399;-68
2023/02/13 02:45:41;;;;;;;5.50;1.35;;;20.10;67.00;;;;;;6074018;23;20009;-68
2023/02/13 02:51:21;;;;;;;7.50;1.98;;;20.10;66.80;;;;;;6073119;23;20025;-68
2023/02/13 02:56:59;;;;;;;2.95;1.48;;;20.10;66.90;;;;;;6121012;23;20035;-68
2023/02/13 03:06:09;;;;;;;2.90;1.50;;;20.10;67.10;;;;;;6192170;23;20024;-68
2023/02/13 03:08:10;;;;;;;1.40;1.30;;;20.00;67.20;;;;;;6193114;23;20039;-68
2023/02/13 03:13:42;;;;;;;1.38;1.27;;;19.90;67.30;;;;;;6213413;23;20027;-68
2023/02/13 03:24:32;;;;;;;1.40;1.30;;;19.80;67.50;;;;;;6213320;23;20405;-68
2023/02/13 03:27:13;;;;;;;2.35;1.40;;;19.70;67.50;;;;;;6214471;23;20430;-68
2023/02/13 03:30:10;;;;;;;4.13;1.48;;;19.70;67.50;;;;;;6214569;23;20004;-68
2023/02/13 03:32:51;;;;;;;2.63;1.33;;;19.60;67.60;;;;;;6191024;23;20353;-68
2023/02/13 03:38:19;;;;;;;1.73;1.33;;;19.60;67.70;;;;;;6214397;23;20016;-68
2023/02/13 03:44:19;;;;;;;1.60;1.50;;;19.50;67.70;;;;;;6105738;23;20013;-68
2023/02/13 03:46:46;;;;;;;1.50;1.40;;;19.50;67.60;;;;;;6122623;23;20038;-68
2023/02/13 03:50:04;;;;;;;1.30;1.20;;;19.40;67.50;;;;;;6122349;23;20014;-68
2023/02/13 03:53:00;;;;;;;1.77;1.40;;;19.40;67.60;;;;;;6122602;23;20005;-68
2023/02/13 04:01:04;;;;;;;1.90;1.48;;;19.30;68.10;;;;;;6122451;23;20028;-68
2023/02/13 04:03:48;;;;;;;1.50;1.40;;;19.30;68.20;;;;;;6123893;23;20002;-68
2023/02/13 04:06:33;;;;;;;2.33;1.80;;;19.30;68.20;;;;;;6124595;23;20006;-68
2023/02/13 04:08:59;;;;;;;1.67;1.35;;;19.20;68.30;;;;;;6123789;23;20046;-68
2023/02/13 04:11:29;;;;;;;4.18;1.30;;;19.20;68.40;;;;;;6124611;23;20018;-68
2023/02/13 04:13:56;;;;;;;2.05;1.70;;;19.20;68.50;;;;;;6123867;23;20006;-68
2023/02/13 04:16:40;;;;;;;1.48;1.38;;;19.10;68.50;;;;;;6124323;23;20010;-68
2023/02/13 04:19:06;;;;;;;1.50;1.40;;;19.10;68.50;;;;;;6233631;23;20008;-68
2023/02/13 04:21:32;;;;;;;2.67;1.55;;;19.10;68.50;;;;;;6190176;23;20001;-68
2023/02/13 04:23:58;;;;;;;3.30;1.48;;;19.10;69.70;;;;;;6214938;23;20429;-68
2023/02/13 04:26:24;;;;;;;2.88;1.45;;;19.00;68.60;;;;;;6216317;23;20051;-68
2023/02/13 04:28:49;;;;;;;4.63;1.35;;;19.00;68.70;;;;;;6214598;23;20070;-68
2023/02/13 04:31:15;;;;;;;1.40;1.30;;;19.00;68.70;;;;;;6216166;23;20055;-68
2023/02/13 04:33:40;;;;;;;2.28;1.45;;;19.00;68.80;;;;;;6216403;23;20004;-68
2023/02/13 04:36:06;;;;;;;1.85;1.73;;;18.90;68.80;;;;;;6189721;23;20004;-68
2023/02/13 04:38:32;;;;;;;1.60;1.50;;;18.90;68.90;;;;;;6216463;23;20305;-68
2023/02/13 04:40:57;;;;;;;1.45;1.35;;;18.90;68.90;;;;;;6216126;23;19996;-68
2023/02/13 04:43:24;;;;;;;3.53;1.50;;;18.90;69.10;;;;;;6216093;23;20005;-68
2023/02/13 04:45:49;;;;;;;1.70;1.60;;;18.80;69.00;;;;;;6216172;23;20000;-68
2023/02/13 04:48:15;;;;;;;1.67;1.48;;;18.80;69.10;;;;;;6214675;23;20341;-68
2023/02/13 04:50:41;;;;;;;2.15;1.42;;;18.80;69.00;;;;;;6214817;23;20051;-68
2023/02/13 04:53:06;;;;;;;2.35;1.75;;;18.80;69.10;;;;;;6214515;23;20001;-68
2023/02/13 04:55:32;;;;;;;3.42;1.60;;;18.80;69.20;;;;;;6215738;23;20054;-68
2023/02/13 04:57:58;;;;;;;2.63;1.27;;;18.70;69.20;;;;;;6214621;23;20022;-68
2023/02/13 05:00:25;;;;;;;2.85;1.38;;;18.70;69.20;;;;;;6214561;23;20016;-68
2023/02/13 05:02:50;;;;;;;2.03;1.50;;;18.70;69.40;;;;;;6214740;23;20011;-68
2023/02/13 05:05:16;;;;;;;1.38;1.27;;;18.60;69.40;;;;;;6189296;23;20072;-68
2023/02/13 05:07:42;;;;;;;1.58;1.48;;;18.60;69.40;;;;;;6216421;23;20005;-68
2023/02/13 05:10:09;;;;;;;1.38;1.27;;;18.60;69.50;;;;;;6215768;23;20012;-68
2023/02/13 05:12:34;;;;;;;1.63;1.42;;;18.60;69.50;;;;;;6215970;23;20340;-68
2023/02/13 05:15:00;;;;;;;1.60;1.48;;;18.60;69.50;;;;;;6215888;23;20079;-68
2023/02/13 05:17:26;;;;;;;1.80;1.70;;;18.60;69.60;;;;;;6215479;23;19996;-68
2023/02/13 05:19:51;;;;;;;2.33;1.80;;;18.50;69.60;;;;;;6214501;23;20000;-68
2023/02/13 05:25:01;;;;;;;3.83;1.40;;;18.40;69.70;;;;;;6193140;23;20399;-68
2023/02/13 05:27:27;;;;;;;1.70;1.60;;;18.40;70.00;;;;;;6214173;23;20008;-68
2023/02/13 05:29:52;;;;;;;1.67;1.58;;;18.40;69.90;;;;;;6215789;23;20457;-68
2023/02/13 05:32:18;;;;;;;1.83;1.67;;;18.40;69.90;;;;;;6215510;23;20318;-68
2023/02/13 05:34:44;;;;;;;2.33;1.42;;;18.40;70.00;;;;;;6214252;23;20005;-68
2023/02/13 05:37:09;;;;;;;1.85;1.65;;;18.40;70.00;;;;;;6214183;23;20084;-68
2023/02/13 05:39:35;;;;;;;1.45;1.35;;;18.30;70.10;;;;;;6215257;23;20000;-68
2023/02/13 05:42:03;;;;;;;1.88;1.40;;;18.30;70.10;;;;;;6215749;23;20020;-68
2023/02/13 05:44:29;;;;;;;2.17;1.65;;;18.30;70.10;;;;;;6215551;23;20422;-68
2023/02/13 05:46:55;;;;;;;9.20;1.80;;;18.30;70.10;;;;;;6214189;23;20000;-68
2023/02/13 05:49:21;;;;;;;2.97;1.60;;;18.30;70.20;;;;;;6215395;23;20000;-68
2023/02/13 05:51:47;;;;;;;3.63;1.45;;;18.30;70.20;;;;;;6214279;23;20058;-68
2023/02/13 05:54:13;;;;;;;1.52;1.42;;;18.20;70.30;;;;;;6213791;23;20012;-68
2023/02/13 05:56:39;;;;;;;1.55;1.45;;;18.20;70.30;;;;;;6188940;23;20001;-68
2023/02/13 05:59:04;;;;;;;1.45;1.35;;;18.20;70.30;;;;;;6214053;23;20001;-68
2023/02/13 06:01:30;;;;;;;1.55;1.40;;;18.20;70.50;;;;;;6188959;23;20345;-68
2023/02/13 06:03:56;;;;;;;1.50;1.40;;;18.20;70.60;;;;;;6213947;23;20003;-68
2023/02/13 06:06:22;;;;;;;5.28;1.85;;;18.20;70.70;;;;;;6215463;23;20426;-68
2023/02/13 06:08:47;;;;;;;1.70;1.50;;;18.10;70.60;;;;;;6215304;23;20123;-68
2023/02/13 06:11:13;;;;;;;1.30;1.20;;;18.10;70.60;;;;;;6213953;23;20464;-68
2023/02/13 06:13:39;;;;;;;2.25;1.88;;;18.10;70.60;;;;;;6215382;23;20071;-68
2023/02/13 06:16:08;;;;;;;1.50;1.40;;;18.10;70.60;;;;;;6213651;23;20004;-68
2023/02/13 06:18:34;;;;;;;1.63;1.30;;;18.00;70.60;;;;;;6213666;23;20005;-68
2023/02/13 06:21:00;;;;;;;3.20;1.85;;;18.00;70.70;;;;;;6189009;23;20008;-68
2023/02/13 06:23:26;;;;;;;1.60;1.50;;;18.10;70.70;;;;;;6213306;23;20000;-68
2023/02/13 06:25:51;;;;;;;1.70;1.60;;;18.00;70.70;;;;;;6213400;23;20046;-68
2023/02/13 06:28:17;;;;;;;1.60;1.50;;;18.00;70.70;;;;;;6213445;23;20047;-68
2023/02/13 06:30:43;;;;;;;1.60;1.50;;;18.00;70.80;;;;;;6213560;23;20079;-68
2023/02/13 06:33:08;;;;;;;3.58;1.80;;;17.90;70.70;;;;;;6215142;23;20064;-68
2023/02/13 06:35:34;;;;;;;1.50;1.40;;;17.90;70.70;;;;;;6215127;23;20072;-68
2023/02/13 06:37:59;;;;;;;2.17;1.40;;;17.90;70.90;;;;;;6213219;23;20032;-68
2023/02/13 06:40:25;;;;;;;3.22;1.63;;;17.90;70.80;;;;;;6214915;23;20050;-68
2023/02/13 06:42:51;;;;;;;3.28;1.88;;;18.00;70.90;;;;;;6215245;23;20034;-68
2023/02/13 06:45:16;;;;;;;5.03;1.90;;;17.90;71.00;;;;;;6213560;23;19996;-68
2023/02/13 06:47:43;;;;;;;3.05;1.65;;;17.90;71.20;;;;;;6214963;23;20001;-68
2023/02/13 06:50:09;;;;;;;4.22;1.58;;;17.90;71.10;;;;;;6215113;23;20027;-68
2023/02/13 06:52:35;;;;;;;3.20;1.70;;;17.90;71.20;;;;;;6188044;23;20004;-68
2023/02/13 06:55:00;;;;;;;4.22;1.73;;;17.90;71.20;;;;;;6214871;23;20001;-68
2023/02/13 06:57:26;;;;;;;2.25;1.70;;;17.90;71.10;;;;;;6213318;23;20019;-68
2023/02/13 06:59:52;;;;;;;5.70;1.90;;;17.90;71.10;;;;;;6213412;23;20067;-68
2023/02/13 07:02:17;;;;;;;1.60;1.50;;;17.80;71.20;;;;;;6214691;23;20039;-68
2023/02/13 07:04:43;;;;;;;3.13;1.77;;;17.80;71.20;;;;;;6213229;23;19996;-68
2023/02/13 07:07:09;;;;;;;3.60;1.88;;;17.80;71.30;;;;;;6214721;23;20004;-67
2023/02/13 07:09:35;;;;;;;3.47;1.70;;;17.80;71.40;;;;;;6214580;23;20012;-68
2023/02/13 07:12:04;;;;;;;1.60;1.50;;;17.80;71.40;;;;;;6188503;23;20081;-68
2023/02/13 07:14:30;;;;;;;6.35;1.90;;;17.80;71.40;;;;;;6213145;23;20023;-68
2023/02/13 07:16:56;;;;;;;2.45;1.42;;;17.70;71.40;;;;;;6213317;23;20001;-68
2023/02/13 07:19:22;;;;;;;3.22;1.70;;;17.70;71.40;;;;;;6188068;23;20009;-68
2023/02/13 07:21:47;;;;;;;7.97;1.95;;;17.70;71.40;;;;;;6214344;23;20111;-68
2023/02/13 07:24:13;;;;;;;2.25;1.70;;;17.70;71.40;;;;;;6214820;23;20132;-68
2023/02/13 07:26:38;;;;;;;4.55;1.58;;;17.70;71.50;;;;;;6214318;23;20050;-68
2023/02/13 07:29:05;;;;;;;2.20;2.00;;;17.70;71.40;;;;;;6214441;23;20016;-68
2023/02/13 07:31:33;;;;;;;7.88;1.92;;;17.70;71.40;;;;;;6213078;23;20027;-68
2023/02/13 07:33:59;;;;;;;3.83;1.92;;;17.70;71.40;;;;;;6213327;23;20019;-68
2023/02/13 07:36:26;;;;;;;7.20;2.05;;;17.70;71.20;;;;;;6212663;23;20028;-68
2023/02/13 07:38:51;;;;;;;8.38;2.00;;;17.70;71.20;;;;;;6212817;23;20307;-68
2023/02/13 07:41:17;;;;;;;4.68;2.47;;;17.60;71.30;;;;;;6214658;23;20004;-68
2023/02/13 07:43:43;;;;;;;2.05;1.83;;;17.60;71.30;;;;;;6214980;23;20071;-68
2023/02/13 07:46:08;;;;;;;3.20;1.85;;;17.60;71.40;;;;;;6212724;23;20000;-68
2023/02/13 07:48:34;;;;;;;4.13;1.80;;;17.60;71.40;;;;;;6187593;23;20147;-68
2023/02/13 07:51:01;;;;;;;3.28;1.98;;;17.60;71.50;;;;;;6214446;23;20008;-68
2023/02/13 07:53:27;;;;;;;3.80;2.00;;;17.60;71.50;;;;;;6213152;23;20487;-68
2023/02/13 07:55:52;;;;;;;3.63;1.75;;;17.50;71.40;;;;;;6214263;23;20067;-68
2023/02/13 07:58:18;;;;;;;2.10;1.90;;;17.50;71.40;;;;;;6214551;23;20051;-68
2023/02/13 08:00:43;;;;;;;2.75;2.30;;;17.50;71.40;;;;;;6213311;23;20009;-68
2023/02/13 08:03:09;;;;;;;4.43;1.95;;;17.50;71.30;;;;;;6213185;23;20055;-68
2023/02/13 08:05:35;;;;;;;3.72;2.20;;;17.50;71.40;;;;;;6212620;23;20075;-68
2023/02/13 08:08:00;;;;;;;3.70;1.80;;;17.50;71.40;;;;;;6213065;23;20452;-68
2023/02/13 08:13:11;;;;;;;4.30;2.42;;;17.40;72.40;;;;;;6214557;23;20015;-69
2023/02/13 08:15:37;;;;;;;2.72;2.03;;;17.40;71.60;;;;;;6212916;23;20096;-68
2023/02/13 08:18:03;;;;;;;2.53;2.15;;;17.40;71.50;;;;;;6213034;23;20047;-69
2023/02/13 08:20:28;;;;;;;5.57;2.22;;;17.40;71.40;;;;;;6212655;23;20078;-68
2023/02/13 08:22:57;;;;;;;9.35;2.30;;;17.40;71.30;;;;;;6214377;23;20001;-69
2023/02/13 08:25:22;;;;;;;3.17;1.90;;;17.40;71.30;;;;;;6187670;23;20400;-68
2023/02/13 08:27:48;;;;;;;10.13;2.25;;;17.40;71.30;;;;;;6212559;23;20040;-69
2023/02/13 08:30:14;;;;;;;6.18;2.00;;;17.40;71.30;;;;;;6214481;23;20005;-68
2023/02/13 08:32:40;;;;;;;5.45;2.40;;;17.40;71.30;;;;;;6214067;23;20001;-69
2023/02/13 08:35:05;;;;;;;3.67;1.90;;;17.40;71.40;;;;;;6214104;23;20001;-68
2023/02/13 08:37:31;;;;;;;4.82;2.35;;;17.30;71.40;;;;;;6213138;23;20059;-68
2023/02/13 08:39:56;;;;;;;2.40;2.20;;;17.30;71.40;;;;;;6214221;23;20007;-69
2023/02/13 08:42:22;;;;;;;3.92;2.08;;;17.30;71.50;;;;;;6214254;23;20047;-69
2023/02/13 08:44:48;;;;;;;2.55;1.80;;;17.30;71.40;;;;;;6212757;23;20059;-68
2023/02/13 08:47:14;;;;;;;3.88;2.13;;;17.30;71.40;;;;;;6214203;23;20008;-68
2023/02/13 08:49:39;;;;;;;4.00;2.00;;;17.30;71.50;;;;;;6215189;23;20001;-68
2023/02/13 08:52:05;;;;;;;2.83;2.00;;;17.30;71.60;;;;;;6189588;23;20001;-69
2023/02/13 08:54:33;;;;;;;3.15;2.35;;;17.20;71.50;;;;;;6214599;23;20378;-69
2023/02/13 08:56:59;;;;;;;2.50;2.30;;;17.30;71.60;;;;;;6189879;23;20429;-68
2023/02/13 08:59:24;;;;;;;3.63;2.97;;;17.20;71.10;;;;;;6215266;23;20075;-69
2023/02/13 09:01:50;;;;;;;3.22;2.60;;;17.20;69.70;;;;;;6214490;23;20136;-69
2023/02/13 09:04:17;;;;;;;3.25;2.95;;;17.20;68.70;;;;;;6215943;23;19997;-68
2023/02/13 09:06:43;;;;;;;3.40;3.10;;;17.20;68.00;;;;;;6215241;23;20001;-71
2023/02/13 09:09:08;;;;;;;12.05;3.20;;;17.20;68.00;;;;;;6190120;23;20015;-70
2023/02/13 09:11:34;;;;;;;5.40;2.63;;;17.40;68.20;;;;;;6215118;23;20445;-69
2023/02/13 09:14:00;;;;;;;10.05;3.03;;;17.50;67.70;;;;;;6216758;23;20008;-70
2023/02/13 09:16:25;;;;;;;4.70;3.10;;;17.60;67.60;;;;;;6216416;23;20008;-70
2023/02/13 09:18:51;;;;;;;3.22;2.65;;;17.70;67.40;;;;;;6214745;23;20015;-70
2023/02/13 09:21:17;;;;;;;3.55;3.03;;;17.80;67.40;;;;;;6215134;23;20075;-69
2023/02/13 09:23:43;;;;;;;3.20;2.90;;;17.90;67.30;;;;;;6214953;23;19997;-70
2023/02/13 09:26:10;;;;;;;2.75;2.47;;;18.00;67.00;;;;;;6216728;23;20005;-70
2023/02/13 09:28:36;;;;;;;3.97;2.50;;;18.10;66.80;;;;;;6214703;23;20021;-71
2023/02/13 09:31:06;;;;;;;3.33;3.03;;;18.20;66.80;;;;;;6216412;23;20437;-70
2023/02/13 09:33:32;;;;;;;3.03;2.60;;;18.20;66.60;;;;;;6190044;23;20515;-70
2023/02/13 09:35:57;;;;;;;2.75;2.47;;;18.30;66.50;;;;;;6189718;23;20080;-70
2023/02/13 09:38:23;;;;;;;3.22;2.53;;;18.40;66.50;;;;;;6216526;23;19996;-70
2023/02/13 09:40:53;;;;;;;2.65;2.45;;;18.50;66.40;;;;;;6216179;23;20055;-70
2023/02/13 09:43:31;;;;;;;3.83;2.53;;;18.50;66.30;;;;;;6190670;23;19996;-70
2023/02/13 09:45:59;;;;;;;2.85;2.42;;;18.60;66.00;;;;;;6214689;23;20001;-69
2023/02/13 09:48:30;;;;;;;2.47;2.28;;;18.70;66.00;;;;;;6214000;23;19997;-69
2023/02/13 09:50:56;;;;;;;3.00;2.08;;;18.80;65.70;;;;;;6189343;23;20582;-70
2023/02/13 09:53:23;;;;;;;2.60;2.40;;;18.80;65.60;;;;;;6189119;23;20090;-70
2023/02/13 09:56:04;;;;;;;2.65;2.40;;;18.90;65.70;;;;;;6189098;23;20000;-72
2023/02/13 09:58:45;;;;;;;2.50;2.10;;;19.00;65.30;;;;;;6192174;23;19997;-72
2023/02/13 10:01:38;;;;;;;2.15;2.00;;;19.10;65.30;;;;;;6190233;23;20078;-69
2023/02/13 10:04:11;;;;;;;1.90;1.80;;;19.10;65.40;;;;;;6195537;23;20059;-69
2023/02/13 10:06:48;;;;;;;1.77;1.67;;;19.20;65.20;;;;;;6214067;23;20459;-70
2023/02/13 10:09:34;;;;;;;2.20;1.95;;;19.20;65.10;;;;;;6167886;23;20008;-70
2023/02/13 10:12:07;;;;;;;2.15;1.90;;;19.30;65.20;;;;;;6189671;23;20000;-71
2023/02/13 10:14:35;;;;;;;2.20;2.05;;;19.30;64.90;;;;;;6213722;23;20008;-71
2023/02/13 10:17:05;;;;;;;1.80;1.70;;;19.40;64.70;;;;;;6215498;23;20452;-71
2023/02/13 10:19:44;;;;;;;3.00;1.90;;;19.50;64.90;;;;;;6190309;23;20004;-70
2023/02/13 10:22:37;;;;;;;2.38;1.70;;;19.50;64.70;;;;;;6191823;23;20426;-70
2023/02/13 10:25:23;;;;;;;1.95;1.85;;;19.60;64.50;;;;;;6208835;23;20012;-70
2023/02/13 10:28:02;;;;;;;1.85;1.75;;;19.60;64.50;;;;;;6190736;23;20063;-70
2023/02/13 10:30:33;;;;;;;2.05;1.90;;;19.70;64.50;;;;;;6189143;23;20016;-71
2023/02/13 10:33:18;;;;;;;1.80;1.70;;;19.70;64.50;;;;;;6214357;23;20008;-70
2023/02/13 10:35:55;;;;;;;2.58;1.92;;;19.80;64.20;;;;;;6192385;23;20342;-73
2023/02/13 10:38:21;;;;;;;1.90;1.80;;;19.90;64.20;;;;;;6214410;23;20138;-72
2023/02/13 10:41:07;;;;;;;1.90;1.75;;;19.90;64.20;;;;;;6189309;23;20004;-71
2023/02/13 10:43:39;;;;;;;1.95;1.70;;;19.90;63.90;;;;;;6192276;23;20087;-71
2023/02/13 10:46:32;;;;;;;1.98;1.80;;;19.90;64.00;;;;;;6189672;23;20386;-71
2023/02/13 10:49:48;;;;;;;1.83;1.73;;;20.00;64.00;;;;;;6214359;23;20001;-71
2023/02/13 10:52:24;;;;;;;2.10;1.70;;;20.00;64.00;;;;;;6094538;23;20455;-71
2023/02/13 10:55:18;;;;;;;4.20;1.95;;;20.10;63.80;;;;;;6070689;23;20321;-72
2023/02/13 10:57:49;;;;;;;3.40;1.48;;;20.10;63.80;;;;;;6071773;23;20014;-71
2023/02/13 11:00:23;;;;;;;1.73;1.58;;;20.10;63.60;;;;;;6094395;23;20003;-72
2023/02/13 11:02:49;;;;;;;1.65;1.55;;;20.10;63.60;;;;;;6070402;23;20006;-72
2023/02/13 11:05:29;;;;;;;2.20;2.00;;;20.20;63.70;;;;;;6070640;23;19998;-72
2023/02/13 11:07:54;;;;;;;2.40;1.70;;;20.20;63.60;;;;;;6071366;23;20014;-72
2023/02/13 11:10:24;;;;;;;1.67;1.58;;;20.30;63.60;;;;;;6070621;23;20490;-72
2023/02/13 11:12:49;;;;;;;1.50;1.40;;;20.30;63.50;;;;;;6070140;23;20011;-72
2023/02/13 11:15:25;;;;;;;1.52;1.42;;;20.30;63.50;;;;;;6070389;23;20065;-72
2023/02/13 11:17:54;;;;;;;1.63;1.52;;;20.40;63.40;;;;;;6094091;23;20011;-73
2023/02/13 11:20:43;;;;;;;1.52;1.40;;;20.40;63.30;;;;;;6071043;23;20002;-73
2023/02/13 11:23:22;;;;;;;1.55;1.33;;;20.40;63.20;;;;;;6150197;23;20028;-71
2023/02/13 11:26:08;;;;;;;1.55;1.40;;;20.50;63.20;;;;;;6214059;23;20004;-70
2023/02/13 11:28:43;;;;;;;1.65;1.50;;;20.50;63.00;;;;;;6214905;23;20259;-69
2023/02/13 11:31:22;;;;;;;1.60;1.50;;;20.50;63.00;;;;;;6189958;23;19996;-69
2023/02/13 11:33:48;;;;;;;1.60;1.48;;;20.60;63.10;;;;;;6213753;23;20005;-73
2023/02/13 11:36:25;;;;;;;1.50;1.40;;;20.60;63.10;;;;;;6213822;23;20483;-70
2023/02/13 11:39:06;;;;;;;1.35;1.30;;;20.60;63.00;;;;;;6213421;23;20007;-73
2023/02/13 11:41:39;;;;;;;1.45;1.35;;;20.60;63.10;;;;;;6213599;23;20000;-73
2023/02/13 11:44:05;;;;;;;1.65;1.55;;;20.60;63.10;;;;;;6214093;23;19997;-73
2023/02/13 11:46:46;;;;;;;1.60;1.50;;;20.60;63.30;;;;;;6188590;23;20011;-71
2023/02/13 11:49:16;;;;;;;3.20;1.45;;;20.70;63.30;;;;;;6163896;23;20333;-73
2023/02/13 11:51:46;;;;;;;1.60;1.50;;;20.70;63.20;;;;;;6213815;23;20008;-73
2023/02/13 11:54:30;;;;;;;1.40;1.30;;;20.70;63.10;;;;;;6215296;23;20088;-73
2023/02/13 11:57:02;;;;;;;1.70;1.60;;;20.80;62.90;;;;;;6214901;23;20000;-73
2023/02/13 11:59:30;;;;;;;1.50;1.40;;;20.80;63.00;;;;;;6213791;23;20009;-73
2023/02/13 12:02:44;;;;;;;1.88;1.52;;;20.80;63.00;;;;;;6215020;23;20047;-73
2023/02/13 12:05:16;;;;;;;1.38;1.27;;;20.80;62.90;;;;;;6201272;23;20005;-73
2023/02/13 12:07:42;;;;;;;1.60;1.50;;;20.80;62.90;;;;;;6215373;23;20004;-72
2023/02/13 12:10:18;;;;;;;1.40;1.30;;;20.90;62.80;;;;;;6188840;23;20058;-72
2023/02/13 12:12:53;;;;;;;1.85;1.30;;;20.90;62.80;;;;;;6213463;23;20000;-72
2023/02/13 12:15:24;;;;;;;1.38;1.20;;;20.90;62.80;;;;;;6215214;23;20004;-72
2023/02/13 12:18:08;;;;;;;1.50;1.40;;;20.90;62.60;;;;;;6189387;23;20094;-72
2023/02/13 12:20:42;;;;;;;1.42;1.33;;;21.00;62.70;;;;;;6215110;23;19996;-71
2023/02/13 12:23:44;;;;;;;4.22;1.50;;;21.00;62.80;;;;;;6189342;23;20117;-71
2023/02/13 12:26:49;;;;;;;1.50;1.40;;;21.00;62.70;;;;;;6215595;23;20001;-71
2023/02/13 12:29:21;;;;;;;1.23;1.15;;;21.10;62.70;;;;;;6195334;23;20099;-72
2023/02/13 12:31:50;;;;;;;;;;;21.10;62.50;;;;;;6217902;23;20005;-71
2023/02/13 12:34:15;;;;;;;1.20;1.10;;;21.10;62.60;;;;;;6216959;23;20248;-70
2023/02/13 12:37:18;;;;;;;1.40;1.30;;;21.10;62.50;;;;;;6215158;23;20009;-70
2023/02/13 12:40:14;;;;;;;1.38;1.10;;;21.10;62.50;;;;;;6215153;23;20001;-72
2023/02/13 12:43:15;;;;;;;1.30;1.20;;;21.20;62.50;;;;;;6217099;23;20000;-72
2023/02/13 12:46:13;;;;;;;1.25;1.15;;;21.20;62.50;;;;;;6215778;23;20051;-73
2023/02/13 12:49:16;;;;;;;1.83;1.23;;;21.20;62.50;;;;;;6210059;23;20084;-72
2023/02/13 12:52:00;;;;;;;;;;;21.30;62.30;;;;;;6217690;23;19996;-72
2023/02/13 12:54:43;;;;;;;1.63;1.35;;;21.30;62.50;;;;;;6216657;23;19979;-73
2023/02/13 12:57:42;;;;;;;1.33;1.23;;;21.30;62.50;;;;;;6191467;23;20005;-73
2023/02/13 13:00:17;;;;;;;1.25;1.15;;;21.30;62.50;;;;;;6215208;23;20008;-72
2023/02/13 13:03:20;;;;;;;2.15;1.27;;;21.30;62.50;;;;;;6215401;23;20004;-70
2023/02/13 13:06:05;;;;;;;1.50;1.40;;;21.30;62.30;;;;;;6216924;23;20076;-72
2023/02/13 13:08:46;;;;;;;1.25;1.15;;;21.40;62.40;;;;;;6216786;23;20409;-72
2023/02/13 13:11:23;;;;;;;1.40;1.15;;;21.30;62.40;;;;;;6216563;23;20001;-71
2023/02/13 13:14:05;;;;;;;1.10;1.10;;;21.40;62.40;;;;;;6215008;23;20000;-71
2023/02/13 13:16:44;;;;;;;1.20;1.10;;;21.40;62.40;;;;;;6215318;23;20099;-71
2023/02/13 13:19:16;;;;;;;1.00;1.00;;;21.40;62.20;;;;;;6216387;23;19996;-71
2023/02/13 13:21:54;;;;;;;1.10;1.10;;;21.40;62.30;;;;;;6215187;23;20004;-72
2023/02/13 13:24:23;;;;;;;1.00;1.00;;;21.50;62.30;;;;;;6165596;23;20389;-71
2023/02/13 13:26:49;;;;;;;1.17;1.08;;;21.60;62.20;;;;;;6216869;23;20001;-69
2023/02/13 13:29:31;;;;;;;1.23;1.13;;;21.60;62.00;;;;;;6213835;23;20353;-69
2023/02/13 13:32:02;;;;;;;1.30;1.30;;;21.50;61.70;;;;;;6191628;23;20005;-69
2023/02/13 13:34:28;;;;;;;2.88;1.40;;;21.30;59.60;;;;;;6215012;23;20325;-70
2023/02/13 13:37:07;;;;;;;4.35;1.30;;;21.20;59.60;;;;;;6189889;23;19996;-69
2023/02/13 13:39:48;;;;;;;4.20;1.27;;;21.20;60.20;;;;;;6190735;23;20084;-69
2023/02/13 13:42:16;;;;;;;4.18;1.80;;;21.20;61.00;;;;;;6214805;23;20341;-69
2023/02/13 13:44:46;;;;;;;23.95;5.35;;;21.10;62.00;;;;;;6216555;23;20063;-69
2023/02/13 13:47:15;;;;;;;10.70;2.80;;;21.10;61.70;;;;;;6214527;23;20028;-69
2023/02/13 13:49:53;;;;;;;17.48;3.50;;;21.00;61.60;;;;;;6215969;23;20055;-69